CYKO

Akulivik Airport

Akulivik, Quebec, Canada
METAR CYKO 211300Z 33005KT 15SM BKN250 08/04 A3024 RMK CI5 SLP245
Observed Flight Rules
Jul-21 @ 13:00 UTC (48 minutes ago) Visual Flight Rules
Wind Visibility Clouds
330° at 5 knots 15 miles
  • Broken at 25,000' AGL
Temperatures Readings
Current 8°C / 46°F
Dewpoint 4°C / 39°F
Humidity 76%
Altimeter 30.24" Hg
Pressure 1024.5 hPa
Elevation 9
METAR CYKO 211300Z 33005KT 15SM BKN250 08/04 A3024 RMK CI5 SLP245
Observed Flight Rules
Jul-21 @ 13:00 UTC
(48 minutes ago)
VFR
Wind Visibility
330° at 5 knots 15 miles
Clouds
  • Broken at 25,000' AGL
Temperature Dewpoint
8°C / 46°F 4°C / 39°F
Humidity Altimeter Pressure
76% 30.24" Hg 1024.5 hPa